Map

Track Data

SID SEASON NUMBER BASIN SUBBASIN NAME ISO_TIME NATURE LAT LON WMO_WIND WMO_PRES WMO_AGENCY TRACK_TYPE DIST2LAND LANDFALL IFLAG USA_AGENCY USA_ATCF_ID USA_LAT USA_LON USA_RECORD USA_STATUS USA_WIND USA_PRES USA_SSHS USA_R34_NE USA_R34_SE USA_R34_SW USA_R34_NW USA_R50_NE USA_R50_SE USA_R50_SW USA_R50_NW USA_R64_NE USA_R64_SE USA_R64_SW USA_R64_NW USA_POCI USA_ROCI USA_RMW USA_EYE TOKYO_LAT TOKYO_LON TOKYO_GRADE TOKYO_WIND TOKYO_PRES TOKYO_R50_DIR TOKYO_R50_LONG TOKYO_R50_SHORT TOKYO_R30_DIR TOKYO_R30_LONG TOKYO_R30_SHORT TOKYO_LAND CMA_LAT CMA_LON CMA_CAT CMA_WIND CMA_PRES HKO_LAT HKO_LON HKO_CAT HKO_WIND HKO_PRES NEWDELHI_LAT NEWDELHI_LON NEWDELHI_GRADE NEWDELHI_WIND NEWDELHI_PRES NEWDELHI_CI NEWDELHI_DP NEWDELHI_POCI REUNION_LAT REUNION_LON REUNION_TYPE REUNION_WIND REUNION_PRES REUNION_TNUM REUNION_CI REUNION_RMW REUNION_R34_NE REUNION_R34_SE REUNION_R34_SW REUNION_R34_NW REUNION_R50_NE REUNION_R50_SE REUNION_R50_SW REUNION_R50_NW REUNION_R64_NE REUNION_R64_SE REUNION_R64_SW REUNION_R64_NW BOM_LAT BOM_LON BOM_TYPE BOM_WIND BOM_PRES BOM_TNUM BOM_CI BOM_RMW BOM_R34_NE BOM_R34_SE BOM_R34_SW BOM_R34_NW BOM_R50_NE BOM_R50_SE BOM_R50_SW BOM_R50_NW BOM_R64_NE BOM_R64_SE BOM_R64_SW BOM_R64_NW BOM_ROCI BOM_POCI BOM_EYE BOM_POS_METHOD BOM_PRES_METHOD NADI_LAT NADI_LON NADI_CAT NADI_WIND NADI_PRES WELLINGTON_LAT WELLINGTON_LON WELLINGTON_WIND WELLINGTON_PRES DS824_LAT DS824_LON DS824_STAGE DS824_WIND DS824_PRES TD9636_LAT TD9636_LON TD9636_STAGE TD9636_WIND TD9636_PRES TD9635_LAT TD9635_LON TD9635_WIND TD9635_PRES TD9635_ROCI NEUMANN_LAT NEUMANN_LON NEUMANN_CLASS NEUMANN_WIND NEUMANN_PRES MLC_LAT MLC_LON MLC_CLASS MLC_WIND MLC_PRES USA_GUST BOM_GUST BOM_GUST_PER REUNION_GUST REUNION_GUST_PER USA_SEAHGT USA_SEARAD_NE USA_SEARAD_SE USA_SEARAD_SW USA_SEARAD_NW STORM_SPEED STORM_DIR
1992055S17053 1992 17 SI MM GERDA 1992-02-24 06:00:00 TS -17.4000 52.9000 20 1006 reunion spur-merge 327 327 _____O________ -1 -17.4000 52.9000 2 20 1006 9.90000 1.50000 7 89
1992055S17053 1992 17 SI MM GERDA 1992-02-24 09:00:00 TS -17.3926 53.2875 spur-merge 365 365 _____P________ -1 -17.3926 53.2875 2 20 1005 8 90
1992055S17053 1992 17 SI MM GERDA 1992-02-24 12:00:00 TS -17.4000 53.7000 20 1005 reunion spur-merge 404 404 _____O________ -1 -17.4000 53.7000 2 20 1005 9.90000 1.50000 8 93
1992055S17053 1992 17 SI MM GERDA 1992-02-24 15:00:00 TS -17.4350 54.1500 spur-merge 418 398 _____P________ -1 -17.4350 54.1500 2 20 1005 9 97
1992055S17053 1992 17 SI MM GERDA 1992-02-24 18:00:00 TS -17.5000 54.6000 20 1005 reunion spur-merge 398 381 _____O________ -1 -17.5000 54.6000 2 20 1005 9.90000 1.50000 8 101
1992055S17053 1992 17 SI MM GERDA 1992-02-24 21:00:00 TS -17.5923 55.0000 spur-merge 381 347 _____P________ -1 -17.5923 55.0000 2 20 1005 8 105
1992055S17053 1992 17 SI MM GERDA 1992-02-25 00:00:00 TS -17.7000 55.4000 20 1005 reunion spur-merge 347 313 _____O________ -1 -17.7000 55.4000 2 20 1005 9.90000 1.50000 8 104
1992055S17053 1992 17 SI MM GERDA 1992-02-25 03:00:00 TS -17.7847 55.8128 spur-merge 313 276 _____P________ -1 -17.7847 55.8128 2 20 1005 9 103
1992055S17053 1992 17 SI MM GERDA 1992-02-25 06:00:00 TS -17.9000 56.3000 20 1005 reunion spur-merge 276 232 _____O________ -1 -17.9000 56.3000 2 20 1005 9.90000 1.50000 11 108
1992055S17053 1992 17 SI MM GERDA 1992-02-25 09:00:00 TS -18.1226 56.9195 spur-merge 232 201 _____P________ -1 -18.1226 56.9195 2 20 1005 13 108
1992055S17053 1992 17 SI MM GERDA 1992-02-25 12:00:00 TS -18.3000 57.6000 20 1005 reunion spur-merge 201 201 _____O________ -1 -18.3000 57.6000 2 20 1005 9.90000 1.50000 13 99
1992055S17053 1992 17 SI MM GERDA 1992-02-25 15:00:00 TS -18.3250 58.2801 spur-merge 210 210 _____P________ -1 -18.3250 58.2801 2 20 1005 12 85
1992055S17053 1992 17 SI MM GERDA 1992-02-25 18:00:00 TS -18.2000 58.9000 20 1005 reunion spur-merge 247 247 _____O________ -1 -18.2000 58.9000 2 20 1005 9.90000 1.50000 12 68
1992055S17053 1992 17 SI MM GERDA 1992-02-25 21:00:00 TS -17.8998 59.4029 spur-merge 304 304 _____P________ -1 -17.8998 59.4029 2 20 1005 10 55
1992055S17053 1992 17 SI MM GERDA 1992-02-26 00:00:00 TS -17.6000 59.8000 20 1005 reunion spur-merge 356 356 _____O________ -1 -17.6000 59.8000 2 20 1005 9.90000 1.50000 8 61
1992055S17053 1992 17 SI MM GERDA 1992-02-26 03:00:00 TS -17.5199 60.1297 spur-merge 385 385 _____P________ -1 -17.5199 60.1297 2 20 1004 6 80
1992055S17053 1992 17 SI MM GERDA 1992-02-26 06:00:00 TS -17.5000 60.4000 20 1004 reunion spur-merge 406 406 _____O________ -1 -17.5000 60.4000 2 20 1004 9.90000 1.50000 5 81
1992055S17053 1992 17 SI MM GERDA 1992-02-26 09:00:00 TS -17.4375 60.6649 spur-merge 437 437 _____P________ -1 -17.4375 60.6649 2 20 1004 5 67
1992055S17053 1992 17 SI MM GERDA 1992-02-26 12:00:00 TS -17.3000 60.9000 20 1004 reunion spur-merge 460 460 _____O________ -1 -17.3000 60.9000 2 20 1004 9.90000 1.50000 6 47
1992055S17053 1992 17 SI MM GERDA 1992-02-26 15:00:00 TS -17.0300 61.1301 spur-merge 498 498 _____P________ -1 -17.0300 61.1301 2 20 1003 7 32
1992055S17053 1992 17 SI MM GERDA 1992-02-26 18:00:00 TS -16.7000 61.3000 20 1003 reunion spur-merge 537 537 _____O________ -1 -16.7000 61.3000 2 20 1003 9.90000 1.50000 7 22
1992055S17053 1992 17 SI MM GERDA 1992-02-26 21:00:00 TS -16.3774 61.4100 spur-merge 569 569 _____P________ -1 -16.3900 61.3774 2 20 1003 6 9
1992055S17053 1992 17 SI MM GERDA 1992-02-27 00:00:00 TS -16.1000 61.4000 20 1003 reunion spur-merge 594 _____O________ -1 -16.1000 61.4000 2 20 1003 9.90000 1.50000 6 0

About IBTrACS Database

This database is a web-friendly format of International Best Track Archive for Climate Stewardship (IBTrACS), a global best track data archive curated by NOAA dating back to 1842.

Updated: 2021-12-03